sensor_id;sensor_type;location;lat;lon;timestamp;P1;durP1;ratioP1;P2;durP2;ratioP2
50205;SDS011;36098;48.390;10.856;2022-12-16T00:00:20;10.55;;;6.50;;
50205;SDS011;36098;48.390;10.856;2022-12-16T00:02:46;10.35;;;5.72;;
50205;SDS011;36098;48.390;10.856;2022-12-16T00:05:12;9.45;;;5.63;;
50205;SDS011;36098;48.390;10.856;2022-12-16T00:07:37;10.00;;;5.60;;
50205;SDS011;36098;48.390;10.856;2022-12-16T00:10:02;9.68;;;5.85;;
50205;SDS011;36098;48.390;10.856;2022-12-16T00:12:28;8.70;;;5.72;;
50205;SDS011;36098;48.390;10.856;2022-12-16T00:14:53;7.38;;;5.22;;
50205;SDS011;36098;48.390;10.856;2022-12-16T00:17:19;9.82;;;5.75;;
50205;SDS011;36098;48.390;10.856;2022-12-16T00:19:44;8.60;;;5.43;;
50205;SDS011;36098;48.390;10.856;2022-12-16T00:22:09;9.52;;;5.63;;
50205;SDS011;36098;48.390;10.856;2022-12-16T00:24:35;7.85;;;5.60;;
50205;SDS011;36098;48.390;10.856;2022-12-16T00:27:00;8.40;;;5.28;;
50205;SDS011;36098;48.390;10.856;2022-12-16T00:29:25;9.38;;;5.28;;
50205;SDS011;36098;48.390;10.856;2022-12-16T00:31:51;8.48;;;5.53;;
50205;SDS011;36098;48.390;10.856;2022-12-16T00:34:16;7.80;;;4.82;;
50205;SDS011;36098;48.390;10.856;2022-12-16T00:36:42;9.50;;;5.50;;
50205;SDS011;36098;48.390;10.856;2022-12-16T00:39:08;10.68;;;5.85;;
50205;SDS011;36098;48.390;10.856;2022-12-16T00:41:34;10.48;;;5.70;;
50205;SDS011;36098;48.390;10.856;2022-12-16T00:43:59;9.63;;;5.68;;
50205;SDS011;36098;48.390;10.856;2022-12-16T00:46:25;9.27;;;5.47;;
50205;SDS011;36098;48.390;10.856;2022-12-16T00:48:50;6.97;;;5.13;;
50205;SDS011;36098;48.390;10.856;2022-12-16T00:51:15;9.35;;;5.53;;
50205;SDS011;36098;48.390;10.856;2022-12-16T00:53:41;8.48;;;5.38;;
50205;SDS011;36098;48.390;10.856;2022-12-16T00:56:07;9.23;;;5.68;;
50205;SDS011;36098;48.390;10.856;2022-12-16T00:58:34;8.02;;;5.22;;
50205;SDS011;36098;48.390;10.856;2022-12-16T01:01:00;8.48;;;5.63;;
50205;SDS011;36098;48.390;10.856;2022-12-16T01:03:26;8.23;;;5.43;;
50205;SDS011;36098;48.390;10.856;2022-12-16T01:05:51;8.23;;;5.10;;
50205;SDS011;36098;48.390;10.856;2022-12-16T01:08:17;8.45;;;5.18;;
50205;SDS011;36098;48.390;10.856;2022-12-16T01:10:42;7.97;;;4.95;;
50205;SDS011;36098;48.390;10.856;2022-12-16T01:13:14;8.20;;;5.55;;
50205;SDS011;36098;48.390;10.856;2022-12-16T01:15:39;7.20;;;4.97;;
50205;SDS011;36098;48.390;10.856;2022-12-16T01:18:04;8.45;;;4.82;;
50205;SDS011;36098;48.390;10.856;2022-12-16T01:20:31;9.48;;;5.18;;
50205;SDS011;36098;48.390;10.856;2022-12-16T01:22:57;8.70;;;5.32;;
50205;SDS011;36098;48.390;10.856;2022-12-16T01:25:22;6.95;;;4.75;;
50205;SDS011;36098;48.390;10.856;2022-12-16T01:27:48;7.53;;;4.97;;
50205;SDS011;36098;48.390;10.856;2022-12-16T01:30:14;6.63;;;4.93;;
50205;SDS011;36098;48.390;10.856;2022-12-16T01:32:39;6.75;;;4.70;;
50205;SDS011;36098;48.390;10.856;2022-12-16T01:35:05;6.65;;;4.63;;
50205;SDS011;36098;48.390;10.856;2022-12-16T01:37:30;7.32;;;5.03;;
50205;SDS011;36098;48.390;10.856;2022-12-16T01:39:55;8.15;;;5.38;;
50205;SDS011;36098;48.390;10.856;2022-12-16T01:42:21;6.75;;;4.57;;
50205;SDS011;36098;48.390;10.856;2022-12-16T01:44:47;8.20;;;5.00;;
50205;SDS011;36098;48.390;10.856;2022-12-16T01:47:15;6.95;;;4.78;;
50205;SDS011;36098;48.390;10.856;2022-12-16T01:49:43;7.22;;;4.78;;
50205;SDS011;36098;48.390;10.856;2022-12-16T01:52:15;6.18;;;4.38;;
50205;SDS011;36098;48.390;10.856;2022-12-16T01:54:55;6.50;;;4.72;;
50205;SDS011;36098;48.390;10.856;2022-12-16T01:57:29;8.90;;;5.22;;
50205;SDS011;36098;48.390;10.856;2022-12-16T01:59:59;6.67;;;4.67;;
50205;SDS011;36098;48.390;10.856;2022-12-16T02:02:26;6.70;;;4.53;;
50205;SDS011;36098;48.390;10.856;2022-12-16T02:04:51;7.18;;;5.25;;
50205;SDS011;36098;48.390;10.856;2022-12-16T02:07:36;7.50;;;4.60;;
50205;SDS011;36098;48.390;10.856;2022-12-16T02:10:02;7.20;;;4.32;;
50205;SDS011;36098;48.390;10.856;2022-12-16T02:20:50;6.35;;;4.50;;
50205;SDS011;36098;48.390;10.856;2022-12-16T02:23:26;6.75;;;4.70;;
50205;SDS011;36098;48.390;10.856;2022-12-16T02:37:29;6.47;;;4.47;;
50205;SDS011;36098;48.390;10.856;2022-12-16T02:42:48;5.95;;;4.35;;
50205;SDS011;36098;48.390;10.856;2022-12-16T02:45:21;6.82;;;4.28;;
50205;SDS011;36098;48.390;10.856;2022-12-16T02:47:51;7.22;;;4.30;;
50205;SDS011;36098;48.390;10.856;2022-12-16T02:52:42;6.32;;;4.47;;
50205;SDS011;36098;48.390;10.856;2022-12-16T02:55:07;6.63;;;4.30;;
50205;SDS011;36098;48.390;10.856;2022-12-16T02:57:43;6.28;;;4.28;;
50205;SDS011;36098;48.390;10.856;2022-12-16T03:00:19;4.88;;;3.92;;
50205;SDS011;36098;48.390;10.856;2022-12-16T03:05:30;6.85;;;4.45;;
50205;SDS011;36098;48.390;10.856;2022-12-16T03:08:08;5.28;;;4.13;;
50205;SDS011;36098;48.390;10.856;2022-12-16T03:10:41;5.57;;;4.30;;
50205;SDS011;36098;48.390;10.856;2022-12-16T03:13:10;7.78;;;4.95;;
50205;SDS011;36098;48.390;10.856;2022-12-16T03:15:38;6.45;;;4.53;;
50205;SDS011;36098;48.390;10.856;2022-12-16T03:18:06;5.85;;;4.30;;
50205;SDS011;36098;48.390;10.856;2022-12-16T03:20:39;6.15;;;4.32;;
50205;SDS011;36098;48.390;10.856;2022-12-16T03:23:10;5.90;;;4.18;;
50205;SDS011;36098;48.390;10.856;2022-12-16T03:25:41;6.53;;;4.32;;
50205;SDS011;36098;48.390;10.856;2022-12-16T03:30:46;5.45;;;4.32;;
50205;SDS011;36098;48.390;10.856;2022-12-16T03:33:18;6.90;;;4.72;;
50205;SDS011;36098;48.390;10.856;2022-12-16T03:35:53;4.85;;;3.80;;
50205;SDS011;36098;48.390;10.856;2022-12-16T03:38:23;5.18;;;4.00;;
50205;SDS011;36098;48.390;10.856;2022-12-16T03:40:51;5.50;;;3.92;;
50205;SDS011;36098;48.390;10.856;2022-12-16T03:43:17;6.20;;;4.60;;
50205;SDS011;36098;48.390;10.856;2022-12-16T03:45:43;5.32;;;4.10;;
50205;SDS011;36098;48.390;10.856;2022-12-16T03:48:10;5.90;;;4.18;;
50205;SDS011;36098;48.390;10.856;2022-12-16T03:50:38;6.00;;;4.32;;
50205;SDS011;36098;48.390;10.856;2022-12-16T03:53:05;6.30;;;4.15;;
50205;SDS011;36098;48.390;10.856;2022-12-16T03:55:30;5.53;;;4.10;;
50205;SDS011;36098;48.390;10.856;2022-12-16T03:57:56;5.18;;;3.63;;
50205;SDS011;36098;48.390;10.856;2022-12-16T04:00:21;5.13;;;4.05;;
50205;SDS011;36098;48.390;10.856;2022-12-16T04:02:48;5.75;;;4.53;;
50205;SDS011;36098;48.390;10.856;2022-12-16T04:05:13;5.57;;;3.83;;
50205;SDS011;36098;48.390;10.856;2022-12-16T04:07:39;5.57;;;4.00;;
50205;SDS011;36098;48.390;10.856;2022-12-16T04:10:05;5.93;;;4.18;;
50205;SDS011;36098;48.390;10.856;2022-12-16T04:12:31;5.70;;;4.25;;
50205;SDS011;36098;48.390;10.856;2022-12-16T04:15:15;6.28;;;4.35;;
50205;SDS011;36098;48.390;10.856;2022-12-16T04:17:58;6.55;;;4.53;;
50205;SDS011;36098;48.390;10.856;2022-12-16T04:20:43;6.13;;;4.05;;
50205;SDS011;36098;48.390;10.856;2022-12-16T04:23:30;5.47;;;4.00;;
50205;SDS011;36098;48.390;10.856;2022-12-16T04:26:15;5.05;;;3.72;;
50205;SDS011;36098;48.390;10.856;2022-12-16T04:28:41;6.18;;;4.47;;
50205;SDS011;36098;48.390;10.856;2022-12-16T04:31:06;6.78;;;4.28;;
50205;SDS011;36098;48.390;10.856;2022-12-16T04:33:32;5.40;;;4.13;;
50205;SDS011;36098;48.390;10.856;2022-12-16T04:39:00;6.57;;;4.40;;
50205;SDS011;36098;48.390;10.856;2022-12-16T04:41:44;5.70;;;4.50;;
50205;SDS011;36098;48.390;10.856;2022-12-16T04:47:12;5.37;;;4.07;;
50205;SDS011;36098;48.390;10.856;2022-12-16T04:49:56;4.85;;;3.90;;
50205;SDS011;36098;48.390;10.856;2022-12-16T04:52:40;5.68;;;3.65;;
50205;SDS011;36098;48.390;10.856;2022-12-16T04:58:08;6.55;;;4.00;;
50205;SDS011;36098;48.390;10.856;2022-12-16T05:00:52;6.78;;;4.40;;
50205;SDS011;36098;48.390;10.856;2022-12-16T05:03:36;5.90;;;4.20;;
50205;SDS011;36098;48.390;10.856;2022-12-16T05:06:20;4.97;;;4.00;;
50205;SDS011;36098;48.390;10.856;2022-12-16T05:09:04;6.57;;;4.47;;
50205;SDS011;36098;48.390;10.856;2022-12-16T05:11:49;6.22;;;4.15;;
50205;SDS011;36098;48.390;10.856;2022-12-16T05:14:33;6.18;;;4.35;;
50205;SDS011;36098;48.390;10.856;2022-12-16T05:20:01;6.90;;;4.68;;
50205;SDS011;36098;48.390;10.856;2022-12-16T05:22:45;6.28;;;4.45;;
50205;SDS011;36098;48.390;10.856;2022-12-16T05:25:29;4.93;;;3.92;;
50205;SDS011;36098;48.390;10.856;2022-12-16T05:28:13;5.85;;;4.40;;
50205;SDS011;36098;48.390;10.856;2022-12-16T05:30:57;5.38;;;4.30;;
50205;SDS011;36098;48.390;10.856;2022-12-16T05:33:41;5.18;;;4.00;;
50205;SDS011;36098;48.390;10.856;2022-12-16T05:36:25;5.05;;;4.03;;
50205;SDS011;36098;48.390;10.856;2022-12-16T05:39:09;5.53;;;4.50;;
50205;SDS011;36098;48.390;10.856;2022-12-16T05:44:37;6.63;;;4.80;;
50205;SDS011;36098;48.390;10.856;2022-12-16T05:47:21;5.00;;;3.90;;
50205;SDS011;36098;48.390;10.856;2022-12-16T05:50:05;5.38;;;4.40;;
50205;SDS011;36098;48.390;10.856;2022-12-16T05:52:53;6.60;;;4.45;;
50205;SDS011;36098;48.390;10.856;2022-12-16T05:55:38;6.13;;;4.32;;
50205;SDS011;36098;48.390;10.856;2022-12-16T05:58:22;10.45;;;4.65;;
50205;SDS011;36098;48.390;10.856;2022-12-16T06:01:07;6.70;;;4.47;;
50205;SDS011;36098;48.390;10.856;2022-12-16T06:03:50;10.85;;;4.75;;
50205;SDS011;36098;48.390;10.856;2022-12-16T06:09:19;5.88;;;4.20;;
50205;SDS011;36098;48.390;10.856;2022-12-16T06:12:04;5.97;;;4.53;;
50205;SDS011;36098;48.390;10.856;2022-12-16T06:14:48;10.60;;;4.47;;
50205;SDS011;36098;48.390;10.856;2022-12-16T06:17:32;9.93;;;4.30;;
50205;SDS011;36098;48.390;10.856;2022-12-16T06:20:15;7.93;;;4.60;;
50205;SDS011;36098;48.390;10.856;2022-12-16T06:22:59;8.70;;;4.15;;
50205;SDS011;36098;48.390;10.856;2022-12-16T06:25:43;4.60;;;3.78;;
50205;SDS011;36098;48.390;10.856;2022-12-16T06:28:32;9.57;;;4.40;;
50205;SDS011;36098;48.390;10.856;2022-12-16T06:31:16;9.88;;;4.30;;
50205;SDS011;36098;48.390;10.856;2022-12-16T06:34:00;4.90;;;3.83;;
50205;SDS011;36098;48.390;10.856;2022-12-16T06:36:44;7.32;;;3.67;;
50205;SDS011;36098;48.390;10.856;2022-12-16T06:39:28;5.85;;;4.30;;
50205;SDS011;36098;48.390;10.856;2022-12-16T06:44:56;5.72;;;4.50;;
50205;SDS011;36098;48.390;10.856;2022-12-16T06:50:27;7.22;;;4.00;;
50205;SDS011;36098;48.390;10.856;2022-12-16T06:53:12;4.75;;;3.45;;
50205;SDS011;36098;48.390;10.856;2022-12-16T06:55:55;8.75;;;4.45;;
50205;SDS011;36098;48.390;10.856;2022-12-16T06:58:39;5.60;;;3.80;;
50205;SDS011;36098;48.390;10.856;2022-12-16T07:01:23;7.05;;;4.35;;
50205;SDS011;36098;48.390;10.856;2022-12-16T07:04:07;5.60;;;4.05;;
50205;SDS011;36098;48.390;10.856;2022-12-16T07:06:51;8.07;;;4.40;;
50205;SDS011;36098;48.390;10.856;2022-12-16T07:12:19;7.25;;;4.32;;
50205;SDS011;36098;48.390;10.856;2022-12-16T07:17:47;8.20;;;4.20;;
50205;SDS011;36098;48.390;10.856;2022-12-16T07:20:30;5.85;;;3.92;;
50205;SDS011;36098;48.390;10.856;2022-12-16T07:23:14;6.35;;;4.28;;
50205;SDS011;36098;48.390;10.856;2022-12-16T07:28:42;6.72;;;4.22;;
50205;SDS011;36098;48.390;10.856;2022-12-16T07:34:10;7.10;;;3.95;;
50205;SDS011;36098;48.390;10.856;2022-12-16T07:36:54;7.05;;;3.95;;
50205;SDS011;36098;48.390;10.856;2022-12-16T07:39:38;7.45;;;3.95;;
50205;SDS011;36098;48.390;10.856;2022-12-16T07:42:22;5.50;;;4.25;;
50205;SDS011;36098;48.390;10.856;2022-12-16T07:45:06;7.07;;;3.83;;
50205;SDS011;36098;48.390;10.856;2022-12-16T07:47:50;4.95;;;3.85;;
50205;SDS011;36098;48.390;10.856;2022-12-16T07:50:38;7.57;;;3.85;;
50205;SDS011;36098;48.390;10.856;2022-12-16T07:53:22;5.47;;;3.75;;
50205;SDS011;36098;48.390;10.856;2022-12-16T07:56:06;4.65;;;3.50;;
50205;SDS011;36098;48.390;10.856;2022-12-16T07:58:50;7.82;;;3.80;;
50205;SDS011;36098;48.390;10.856;2022-12-16T08:01:34;5.72;;;4.10;;
50205;SDS011;36098;48.390;10.856;2022-12-16T08:04:18;5.30;;;3.95;;
50205;SDS011;36098;48.390;10.856;2022-12-16T08:07:02;8.20;;;3.85;;
50205;SDS011;36098;48.390;10.856;2022-12-16T08:12:30;6.32;;;4.22;;
50205;SDS011;36098;48.390;10.856;2022-12-16T08:15:14;6.78;;;4.03;;
50205;SDS011;36098;48.390;10.856;2022-12-16T08:17:58;6.43;;;4.20;;
50205;SDS011;36098;48.390;10.856;2022-12-16T08:20:42;7.07;;;4.13;;
50205;SDS011;36098;48.390;10.856;2022-12-16T08:26:09;5.83;;;4.13;;
50205;SDS011;36098;48.390;10.856;2022-12-16T08:29:04;7.65;;;3.97;;
50205;SDS011;36098;48.390;10.856;2022-12-16T08:31:48;6.03;;;3.70;;
50205;SDS011;36098;48.390;10.856;2022-12-16T08:34:32;5.25;;;3.92;;
50205;SDS011;36098;48.390;10.856;2022-12-16T08:40:00;6.80;;;3.80;;
50205;SDS011;36098;48.390;10.856;2022-12-16T08:45:28;5.30;;;3.70;;
50205;SDS011;36098;48.390;10.856;2022-12-16T08:48:12;8.40;;;4.00;;
50205;SDS011;36098;48.390;10.856;2022-12-16T08:50:59;8.70;;;3.97;;
50205;SDS011;36098;48.390;10.856;2022-12-16T08:53:44;8.23;;;3.92;;
50205;SDS011;36098;48.390;10.856;2022-12-16T08:56:28;5.43;;;3.58;;
50205;SDS011;36098;48.390;10.856;2022-12-16T09:01:56;8.25;;;4.07;;
50205;SDS011;36098;48.390;10.856;2022-12-16T09:04:39;6.70;;;3.92;;
50205;SDS011;36098;48.390;10.856;2022-12-16T09:07:23;5.80;;;3.63;;
50205;SDS011;36098;48.390;10.856;2022-12-16T09:12:51;6.03;;;3.80;;
50205;SDS011;36098;48.390;10.856;2022-12-16T09:15:35;9.05;;;4.35;;
50205;SDS011;36098;48.390;10.856;2022-12-16T09:18:33;5.10;;;3.88;;
50205;SDS011;36098;48.390;10.856;2022-12-16T09:21:16;8.30;;;4.13;;
50205;SDS011;36098;48.390;10.856;2022-12-16T09:24:00;5.97;;;4.05;;
50205;SDS011;36098;48.390;10.856;2022-12-16T09:29:28;5.60;;;4.20;;
50205;SDS011;36098;48.390;10.856;2022-12-16T09:32:12;7.18;;;4.40;;
50205;SDS011;36098;48.390;10.856;2022-12-16T09:34:56;6.32;;;4.57;;
50205;SDS011;36098;48.390;10.856;2022-12-16T09:37:44;10.85;;;4.43;;
50205;SDS011;36098;48.390;10.856;2022-12-16T09:40:29;6.47;;;4.00;;
50205;SDS011;36098;48.390;10.856;2022-12-16T09:49:31;8.35;;;4.50;;
50205;SDS011;36098;48.390;10.856;2022-12-16T09:52:26;6.97;;;4.00;;
50205;SDS011;36098;48.390;10.856;2022-12-16T09:58:33;9.82;;;4.00;;
50205;SDS011;36098;48.390;10.856;2022-12-16T10:01:20;6.82;;;4.07;;
50205;SDS011;36098;48.390;10.856;2022-12-16T10:04:05;9.07;;;4.22;;
50205;SDS011;36098;48.390;10.856;2022-12-16T10:06:56;6.03;;;3.97;;
50205;SDS011;36098;48.390;10.856;2022-12-16T10:09:46;5.90;;;3.88;;
50205;SDS011;36098;48.390;10.856;2022-12-16T10:15:52;7.35;;;4.03;;
50205;SDS011;36098;48.390;10.856;2022-12-16T10:18:45;6.50;;;3.83;;
50205;SDS011;36098;48.390;10.856;2022-12-16T10:21:50;5.38;;;3.40;;
50205;SDS011;36098;48.390;10.856;2022-12-16T10:24:46;7.05;;;4.07;;
50205;SDS011;36098;48.390;10.856;2022-12-16T10:27:46;6.10;;;4.18;;
50205;SDS011;36098;48.390;10.856;2022-12-16T10:30:32;6.15;;;3.78;;
50205;SDS011;36098;48.390;10.856;2022-12-16T10:33:19;10.80;;;4.03;;
50205;SDS011;36098;48.390;10.856;2022-12-16T10:36:12;8.00;;;4.18;;
50205;SDS011;36098;48.390;10.856;2022-12-16T10:39:02;6.90;;;4.07;;
50205;SDS011;36098;48.390;10.856;2022-12-16T10:41:50;8.23;;;4.20;;
50205;SDS011;36098;48.390;10.856;2022-12-16T10:44:39;6.47;;;3.90;;
50205;SDS011;36098;48.390;10.856;2022-12-16T10:47:33;9.75;;;4.07;;
50205;SDS011;36098;48.390;10.856;2022-12-16T10:50:17;6.18;;;3.97;;
50205;SDS011;36098;48.390;10.856;2022-12-16T10:58:50;5.30;;;3.78;;
50205;SDS011;36098;48.390;10.856;2022-12-16T11:01:37;5.45;;;3.67;;
50205;SDS011;36098;48.390;10.856;2022-12-16T11:07:38;5.45;;;3.60;;
50205;SDS011;36098;48.390;10.856;2022-12-16T11:10:39;6.05;;;3.78;;
50205;SDS011;36098;48.390;10.856;2022-12-16T11:13:32;5.85;;;3.38;;
50205;SDS011;36098;48.390;10.856;2022-12-16T11:16:21;7.20;;;3.67;;
50205;SDS011;36098;48.390;10.856;2022-12-16T11:19:20;7.55;;;3.78;;
50205;SDS011;36098;48.390;10.856;2022-12-16T11:22:21;6.25;;;3.72;;
50205;SDS011;36098;48.390;10.856;2022-12-16T11:25:15;5.72;;;4.18;;
50205;SDS011;36098;48.390;10.856;2022-12-16T11:28:12;4.97;;;3.58;;
50205;SDS011;36098;48.390;10.856;2022-12-16T11:31:02;6.35;;;3.42;;
50205;SDS011;36098;48.390;10.856;2022-12-16T11:33:49;5.03;;;3.50;;
50205;SDS011;36098;48.390;10.856;2022-12-16T11:36:35;5.35;;;3.40;;
50205;SDS011;36098;48.390;10.856;2022-12-16T11:39:22;5.45;;;3.65;;
50205;SDS011;36098;48.390;10.856;2022-12-16T11:42:09;6.90;;;3.78;;
50205;SDS011;36098;48.390;10.856;2022-12-16T11:44:58;6.47;;;4.03;;
50205;SDS011;36098;48.390;10.856;2022-12-16T11:47:53;5.10;;;3.90;;
50205;SDS011;36098;48.390;10.856;2022-12-16T11:50:40;6.28;;;4.00;;
50205;SDS011;36098;48.390;10.856;2022-12-16T11:53:39;5.78;;;3.83;;
50205;SDS011;36098;48.390;10.856;2022-12-16T11:56:30;6.03;;;4.15;;
50205;SDS011;36098;48.390;10.856;2022-12-16T11:59:24;5.03;;;3.90;;
50205;SDS011;36098;48.390;10.856;2022-12-16T12:02:17;5.38;;;3.88;;
50205;SDS011;36098;48.390;10.856;2022-12-16T12:05:10;6.75;;;4.07;;
50205;SDS011;36098;48.390;10.856;2022-12-16T12:08:17;4.95;;;3.75;;
50205;SDS011;36098;48.390;10.856;2022-12-16T12:11:20;7.75;;;4.20;;
50205;SDS011;36098;48.390;10.856;2022-12-16T12:14:15;6.53;;;4.38;;
50205;SDS011;36098;48.390;10.856;2022-12-16T12:20:25;5.32;;;3.97;;
50205;SDS011;36098;48.390;10.856;2022-12-16T12:23:24;5.95;;;3.90;;
50205;SDS011;36098;48.390;10.856;2022-12-16T12:26:32;5.72;;;3.85;;
50205;SDS011;36098;48.390;10.856;2022-12-16T12:38:24;8.45;;;3.80;;
50205;SDS011;36098;48.390;10.856;2022-12-16T12:41:24;5.68;;;3.67;;
50205;SDS011;36098;48.390;10.856;2022-12-16T12:47:05;5.72;;;3.50;;
50205;SDS011;36098;48.390;10.856;2022-12-16T12:56:08;8.88;;;4.05;;
50205;SDS011;36098;48.390;10.856;2022-12-16T12:58:58;6.30;;;4.00;;
50205;SDS011;36098;48.390;10.856;2022-12-16T13:01:46;7.85;;;3.40;;
50205;SDS011;36098;48.390;10.856;2022-12-16T13:04:31;5.78;;;3.50;;
50205;SDS011;36098;48.390;10.856;2022-12-16T13:07:16;7.20;;;3.42;;
50205;SDS011;36098;48.390;10.856;2022-12-16T13:16:12;6.35;;;3.88;;
50205;SDS011;36098;48.390;10.856;2022-12-16T13:19:42;6.90;;;4.28;;
50205;SDS011;36098;48.390;10.856;2022-12-16T13:22:30;8.52;;;3.97;;
50205;SDS011;36098;48.390;10.856;2022-12-16T13:28:36;10.40;;;3.88;;
50205;SDS011;36098;48.390;10.856;2022-12-16T13:31:22;7.65;;;3.30;;
50205;SDS011;36098;48.390;10.856;2022-12-16T13:37:01;9.13;;;4.22;;
50205;SDS011;36098;48.390;10.856;2022-12-16T13:39:59;6.22;;;3.55;;
50205;SDS011;36098;48.390;10.856;2022-12-16T13:42:48;8.90;;;4.00;;
50205;SDS011;36098;48.390;10.856;2022-12-16T13:48:41;7.93;;;3.42;;
50205;SDS011;36098;48.390;10.856;2022-12-16T13:51:54;11.90;;;3.97;;
50205;SDS011;36098;48.390;10.856;2022-12-16T13:54:40;5.43;;;3.40;;
50205;SDS011;36098;48.390;10.856;2022-12-16T13:57:38;6.13;;;3.80;;
50205;SDS011;36098;48.390;10.856;2022-12-16T14:00:25;7.15;;;3.58;;
50205;SDS011;36098;48.390;10.856;2022-12-16T14:03:21;6.93;;;3.65;;
50205;SDS011;36098;48.390;10.856;2022-12-16T14:06:11;5.13;;;3.45;;
50205;SDS011;36098;48.390;10.856;2022-12-16T14:09:01;7.25;;;3.22;;
50205;SDS011;36098;48.390;10.856;2022-12-16T14:11:54;7.15;;;3.55;;
50205;SDS011;36098;48.390;10.856;2022-12-16T14:14:54;8.18;;;3.50;;
50205;SDS011;36098;48.390;10.856;2022-12-16T14:17:47;7.15;;;3.50;;
50205;SDS011;36098;48.390;10.856;2022-12-16T14:20:48;9.98;;;3.50;;
50205;SDS011;36098;48.390;10.856;2022-12-16T14:23:40;8.82;;;3.50;;
50205;SDS011;36098;48.390;10.856;2022-12-16T14:26:29;7.50;;;3.58;;
50205;SDS011;36098;48.390;10.856;2022-12-16T14:29:24;8.43;;;3.30;;
50205;SDS011;36098;48.390;10.856;2022-12-16T14:32:23;5.47;;;3.10;;
50205;SDS011;36098;48.390;10.856;2022-12-16T14:35:11;7.35;;;3.22;;
50205;SDS011;36098;48.390;10.856;2022-12-16T14:38:11;7.97;;;3.10;;
50205;SDS011;36098;48.390;10.856;2022-12-16T14:41:03;6.63;;;3.42;;
50205;SDS011;36098;48.390;10.856;2022-12-16T14:43:47;5.38;;;3.50;;
50205;SDS011;36098;48.390;10.856;2022-12-16T14:46:31;5.50;;;3.10;;
50205;SDS011;36098;48.390;10.856;2022-12-16T14:49:16;8.35;;;3.60;;
50205;SDS011;36098;48.390;10.856;2022-12-16T14:52:16;4.75;;;2.85;;
50205;SDS011;36098;48.390;10.856;2022-12-16T14:58:17;6.20;;;3.38;;
50205;SDS011;36098;48.390;10.856;2022-12-16T15:03:56;8.70;;;3.67;;
50205;SDS011;36098;48.390;10.856;2022-12-16T15:06:42;6.93;;;3.60;;
50205;SDS011;36098;48.390;10.856;2022-12-16T15:09:47;3.83;;;2.90;;
50205;SDS011;36098;48.390;10.856;2022-12-16T15:12:37;4.82;;;3.30;;
50205;SDS011;36098;48.390;10.856;2022-12-16T15:15:31;6.22;;;3.50;;
50205;SDS011;36098;48.390;10.856;2022-12-16T15:18:37;6.47;;;3.50;;
50205;SDS011;36098;48.390;10.856;2022-12-16T15:21:26;6.03;;;3.00;;
50205;SDS011;36098;48.390;10.856;2022-12-16T15:24:15;8.38;;;3.35;;
50205;SDS011;36098;48.390;10.856;2022-12-16T15:42:17;5.28;;;3.15;;
50205;SDS011;36098;48.390;10.856;2022-12-16T15:45:28;4.95;;;3.20;;
50205;SDS011;36098;48.390;10.856;2022-12-16T15:51:02;5.22;;;3.28;;
50205;SDS011;36098;48.390;10.856;2022-12-16T15:56:44;7.50;;;3.05;;
50205;SDS011;36098;48.390;10.856;2022-12-16T15:59:29;7.65;;;3.17;;
50205;SDS011;36098;48.390;10.856;2022-12-16T16:02:19;5.05;;;3.50;;
50205;SDS011;36098;48.390;10.856;2022-12-16T16:05:13;8.02;;;3.50;;
50205;SDS011;36098;48.390;10.856;2022-12-16T16:07:58;9.05;;;3.42;;
50205;SDS011;36098;48.390;10.856;2022-12-16T16:10:42;5.90;;;3.15;;
50205;SDS011;36098;48.390;10.856;2022-12-16T16:13:27;4.30;;;3.13;;
50205;SDS011;36098;48.390;10.856;2022-12-16T16:16:12;4.93;;;3.25;;
50205;SDS011;36098;48.390;10.856;2022-12-16T16:18:56;9.07;;;3.40;;
50205;SDS011;36098;48.390;10.856;2022-12-16T16:24:24;5.25;;;2.58;;
50205;SDS011;36098;48.390;10.856;2022-12-16T16:27:10;9.23;;;3.20;;
50205;SDS011;36098;48.390;10.856;2022-12-16T16:29:56;5.93;;;3.08;;
50205;SDS011;36098;48.390;10.856;2022-12-16T16:32:41;5.85;;;2.90;;
50205;SDS011;36098;48.390;10.856;2022-12-16T16:35:25;7.43;;;2.95;;
50205;SDS011;36098;48.390;10.856;2022-12-16T16:38:12;5.38;;;2.90;;
50205;SDS011;36098;48.390;10.856;2022-12-16T16:40:56;4.00;;;2.60;;
50205;SDS011;36098;48.390;10.856;2022-12-16T16:43:40;4.07;;;3.08;;
50205;SDS011;36098;48.390;10.856;2022-12-16T16:46:39;7.22;;;3.40;;
50205;SDS011;36098;48.390;10.856;2022-12-16T16:49:27;13.70;;;3.60;;
50205;SDS011;36098;48.390;10.856;2022-12-16T16:52:12;6.95;;;3.40;;
50205;SDS011;36098;48.390;10.856;2022-12-16T16:54:58;6.85;;;3.42;;
50205;SDS011;36098;48.390;10.856;2022-12-16T16:57:42;6.28;;;3.50;;
50205;SDS011;36098;48.390;10.856;2022-12-16T17:00:26;6.28;;;3.47;;
50205;SDS011;36098;48.390;10.856;2022-12-16T17:03:11;8.10;;;3.63;;
50205;SDS011;36098;48.390;10.856;2022-12-16T17:05:54;8.13;;;4.00;;
50205;SDS011;36098;48.390;10.856;2022-12-16T17:08:38;9.13;;;4.13;;
50205;SDS011;36098;48.390;10.856;2022-12-16T17:11:22;10.88;;;3.97;;
50205;SDS011;36098;48.390;10.856;2022-12-16T17:14:13;10.30;;;3.90;;
50205;SDS011;36098;48.390;10.856;2022-12-16T17:16:59;13.13;;;4.57;;
50205;SDS011;36098;48.390;10.856;2022-12-16T17:19:43;16.98;;;5.93;;
50205;SDS011;36098;48.390;10.856;2022-12-16T17:22:28;24.60;;;9.13;;
50205;SDS011;36098;48.390;10.856;2022-12-16T17:25:12;22.90;;;7.85;;
50205;SDS011;36098;48.390;10.856;2022-12-16T17:27:57;23.75;;;7.70;;
50205;SDS011;36098;48.390;10.856;2022-12-16T17:30:41;25.98;;;7.90;;
50205;SDS011;36098;48.390;10.856;2022-12-16T17:33:25;19.00;;;7.13;;
50205;SDS011;36098;48.390;10.856;2022-12-16T17:38:54;23.30;;;6.88;;
50205;SDS011;36098;48.390;10.856;2022-12-16T17:41:38;22.45;;;6.38;;
50205;SDS011;36098;48.390;10.856;2022-12-16T17:47:06;17.92;;;6.28;;
50205;SDS011;36098;48.390;10.856;2022-12-16T17:49:50;13.52;;;6.10;;
50205;SDS011;36098;48.390;10.856;2022-12-16T17:52:34;15.25;;;6.13;;
50205;SDS011;36098;48.390;10.856;2022-12-16T17:55:18;12.88;;;5.32;;
50205;SDS011;36098;48.390;10.856;2022-12-16T17:58:02;18.13;;;5.60;;
50205;SDS011;36098;48.390;10.856;2022-12-16T18:00:46;15.02;;;6.03;;
50205;SDS011;36098;48.390;10.856;2022-12-16T18:03:29;20.60;;;5.90;;
50205;SDS011;36098;48.390;10.856;2022-12-16T18:06:13;20.98;;;6.25;;
50205;SDS011;36098;48.390;10.856;2022-12-16T18:08:57;19.38;;;5.75;;
50205;SDS011;36098;48.390;10.856;2022-12-16T18:11:41;17.60;;;5.75;;
50205;SDS011;36098;48.390;10.856;2022-12-16T18:14:25;17.35;;;5.63;;
50205;SDS011;36098;48.390;10.856;2022-12-16T18:17:09;15.27;;;5.88;;
50205;SDS011;36098;48.390;10.856;2022-12-16T18:19:52;14.52;;;5.82;;
50205;SDS011;36098;48.390;10.856;2022-12-16T18:25:21;21.83;;;5.50;;
50205;SDS011;36098;48.390;10.856;2022-12-16T18:30:48;18.13;;;6.00;;
50205;SDS011;36098;48.390;10.856;2022-12-16T18:33:32;24.73;;;5.50;;
50205;SDS011;36098;48.390;10.856;2022-12-16T18:39:00;18.03;;;5.53;;
50205;SDS011;36098;48.390;10.856;2022-12-16T18:41:44;13.80;;;5.32;;
50205;SDS011;36098;48.390;10.856;2022-12-16T18:44:29;15.60;;;5.53;;
50205;SDS011;36098;48.390;10.856;2022-12-16T18:47:13;15.98;;;5.57;;
50205;SDS011;36098;48.390;10.856;2022-12-16T18:49:57;11.68;;;5.13;;
50205;SDS011;36098;48.390;10.856;2022-12-16T18:52:41;14.68;;;5.05;;
50205;SDS011;36098;48.390;10.856;2022-12-16T18:55:25;18.77;;;5.72;;
50205;SDS011;36098;48.390;10.856;2022-12-16T18:58:09;14.27;;;4.50;;
50205;SDS011;36098;48.390;10.856;2022-12-16T19:01:00;15.95;;;5.78;;
50205;SDS011;36098;48.390;10.856;2022-12-16T19:03:48;18.02;;;6.15;;
50205;SDS011;36098;48.390;10.856;2022-12-16T19:06:32;18.27;;;4.75;;